createdAt,value
2022-11-03T00:17:50.166Z,10.80
2022-11-03T00:30:25.992Z,10.80
2022-11-03T00:38:31.220Z,10.70
2022-11-03T00:43:34.123Z,10.70
2022-11-03T00:46:12.377Z,10.70
2022-11-03T00:48:40.589Z,10.60
2022-11-03T00:51:27.629Z,10.60
2022-11-03T00:54:15.499Z,10.70
2022-11-03T00:56:43.074Z,10.70
2022-11-03T00:59:10.303Z,10.60
2022-11-03T01:01:49.380Z,10.60
2022-11-03T01:04:17.571Z,10.60
2022-11-03T01:06:47.318Z,10.60
2022-11-03T01:09:15.436Z,10.60
2022-11-03T01:12:18.320Z,10.60
2022-11-03T01:14:50.892Z,10.60
2022-11-03T01:17:32.695Z,10.60
2022-11-03T01:22:47.497Z,10.60
2022-11-03T01:25:15.060Z,10.60
2022-11-03T01:27:54.397Z,10.60
2022-11-03T01:33:07.379Z,10.70
2022-11-03T01:38:56.237Z,10.70
2022-11-03T01:48:39.466Z,10.60
2022-11-03T01:51:11.477Z,10.60
2022-11-03T01:53:43.511Z,10.60
2022-11-03T01:56:32.749Z,10.60
2022-11-03T02:01:41.998Z,10.60
2022-11-03T02:04:25.190Z,10.60
2022-11-03T02:07:21.748Z,10.60
2022-11-03T02:10:17.701Z,10.60
2022-11-03T02:12:53.048Z,10.50
2022-11-03T02:16:15.872Z,10.60
2022-11-03T02:18:58.753Z,10.60
2022-11-03T02:25:07.350Z,10.60
2022-11-03T02:27:34.120Z,10.60
2022-11-03T02:30:00.991Z,10.60
2022-11-03T02:32:51.828Z,10.60
2022-11-03T02:35:47.905Z,10.70
2022-11-03T02:41:24.763Z,10.60
2022-11-03T02:43:53.133Z,10.60
2022-11-03T02:46:36.467Z,10.70
2022-11-03T02:49:06.624Z,10.70
2022-11-03T02:51:43.591Z,10.70
2022-11-03T02:57:41.310Z,10.70
2022-11-03T03:00:08.708Z,10.80
2022-11-03T03:03:19.701Z,10.80
2022-11-03T03:06:19.525Z,10.70
2022-11-03T03:23:21.541Z,10.80
2022-11-03T03:26:09.622Z,10.90
2022-11-03T03:32:20.145Z,10.90
2022-11-03T03:35:11.390Z,10.90
2022-11-03T03:41:33.025Z,11.00
2022-11-03T03:44:25.084Z,11.00
2022-11-03T03:47:11.341Z,11.00
2022-11-03T03:49:55.876Z,11.00
2022-11-03T03:52:43.198Z,11.10
2022-11-03T03:56:02.088Z,11.10
2022-11-03T03:58:28.763Z,11.10
2022-11-03T04:01:12.311Z,11.10
2022-11-03T04:03:59.535Z,11.10
2022-11-03T04:13:36.744Z,11.10
2022-11-03T04:16:35.625Z,11.10
2022-11-03T04:19:11.097Z,11.10
2022-11-03T04:21:37.817Z,11.10
2022-11-03T04:24:04.529Z,11.10
2022-11-03T04:26:40.693Z,11.10
2022-11-03T04:29:25.720Z,11.10
2022-11-03T04:31:54.639Z,11.10
2022-11-03T04:34:24.538Z,11.10
2022-11-03T04:36:57.676Z,11.10
2022-11-03T04:39:40.337Z,11.10
2022-11-03T04:42:17.044Z,11.10
2022-11-03T04:45:00.877Z,11.10
2022-11-03T04:47:38.354Z,11.10
2022-11-03T04:50:25.863Z,11.10
2022-11-03T04:53:12.058Z,11.10
2022-11-03T04:55:56.759Z,11.10
2022-11-03T04:58:27.090Z,11.10
2022-11-03T05:01:00.601Z,11.10
2022-11-03T05:06:30.185Z,11.10
2022-11-03T05:09:00.434Z,11.10
2022-11-03T05:11:42.695Z,11.10
2022-11-03T05:17:27.622Z,11.10
2022-11-03T05:20:25.599Z,11.10
2022-11-03T05:23:09.518Z,11.10
2022-11-03T05:28:57.035Z,11.10
2022-11-03T05:31:54.089Z,11.10
2022-11-03T05:37:35.840Z,11.20
2022-11-03T05:40:33.721Z,11.20
2022-11-03T05:43:28.404Z,11.20
2022-11-03T05:46:03.509Z,11.20
2022-11-03T05:52:19.256Z,11.20
2022-11-03T05:55:03.862Z,11.20
2022-11-03T05:57:42.838Z,11.20
2022-11-03T06:00:39.830Z,11.20
2022-11-03T06:03:27.333Z,11.30
2022-11-03T06:05:54.664Z,11.30
2022-11-03T06:08:26.495Z,11.30
2022-11-03T06:11:25.658Z,11.30
2022-11-03T06:17:13.486Z,11.30
2022-11-03T06:20:01.489Z,11.30
2022-11-03T06:25:39.113Z,11.40
2022-11-03T06:28:13.766Z,11.40
2022-11-03T06:30:55.141Z,11.40
2022-11-03T06:33:35.263Z,11.40
2022-11-03T06:36:22.577Z,11.40
2022-11-03T06:39:15.219Z,11.40
2022-11-03T06:41:41.826Z,11.40
2022-11-03T06:47:30.389Z,11.40
2022-11-03T06:50:24.014Z,11.40
2022-11-03T06:55:37.153Z,11.50
2022-11-03T07:01:55.945Z,11.50
2022-11-03T07:04:27.527Z,11.50
2022-11-03T07:07:25.643Z,11.60
2022-11-03T07:10:11.893Z,11.60
2022-11-03T07:12:39.020Z,11.60
2022-11-03T07:15:32.680Z,11.60
2022-11-03T07:20:45.098Z,11.70
2022-11-03T07:23:15.871Z,11.70
2022-11-03T07:26:00.818Z,11.80
2022-11-03T07:31:26.709Z,11.80
2022-11-03T07:34:18.886Z,11.80
2022-11-03T07:36:45.701Z,11.90
2022-11-03T07:39:35.045Z,11.90
2022-11-03T07:42:41.931Z,11.90
2022-11-03T07:45:46.187Z,11.90
2022-11-03T07:48:48.402Z,11.90
2022-11-03T07:51:36.578Z,11.90
2022-11-03T07:54:29.153Z,12.00
2022-11-03T08:00:30.918Z,12.00
2022-11-03T08:03:01.473Z,12.00
2022-11-03T08:05:34.358Z,12.00
2022-11-03T08:08:04.588Z,12.10
2022-11-03T08:10:37.637Z,12.10
2022-11-03T08:13:04.641Z,12.20
2022-11-03T08:15:35.994Z,12.20
2022-11-03T08:18:04.962Z,12.30
2022-11-03T08:20:31.639Z,12.30
2022-11-03T08:23:24.015Z,12.30
2022-11-03T08:25:45.021Z,12.30
2022-11-03T08:30:52.336Z,12.40
2022-11-03T08:36:26.111Z,12.50
2022-11-03T08:38:59.035Z,12.50
2022-11-03T08:41:26.112Z,12.60
2022-11-03T08:43:52.939Z,12.60
2022-11-03T08:46:19.717Z,12.60
2022-11-03T08:48:55.684Z,12.70
2022-11-03T08:51:22.447Z,12.70
2022-11-03T08:54:07.607Z,12.70
2022-11-03T08:56:48.719Z,12.70
2022-11-03T08:59:15.375Z,12.80
2022-11-03T09:01:51.288Z,12.80
2022-11-03T09:04:18.074Z,12.80
2022-11-03T09:07:00.313Z,12.90
2022-11-03T09:12:28.928Z,13.00
2022-11-03T09:14:55.504Z,13.00
2022-11-03T09:17:22.130Z,13.10
2022-11-03T09:20:06.939Z,13.10
2022-11-03T09:22:33.675Z,13.20
2022-11-03T09:25:00.388Z,13.20
2022-11-03T09:27:42.647Z,13.20
2022-11-03T09:30:24.833Z,13.30
2022-11-03T09:33:10.210Z,13.30
2022-11-03T09:35:58.485Z,13.40
2022-11-03T09:38:31.275Z,13.40
2022-11-03T09:40:58.112Z,13.40
2022-11-03T09:43:24.798Z,13.30
2022-11-03T09:45:51.579Z,13.30
2022-11-03T09:49:02.027Z,13.40
2022-11-03T09:51:28.933Z,13.40
2022-11-03T09:53:58.798Z,13.30
2022-11-03T09:56:42.640Z,13.30
2022-11-03T09:59:37.289Z,13.30
2022-11-03T10:02:27.365Z,13.30
2022-11-03T10:08:07.070Z,13.20
2022-11-03T10:10:35.102Z,13.20
2022-11-03T10:13:52.305Z,13.20
2022-11-03T10:16:21.556Z,13.30
2022-11-03T10:19:13.170Z,13.30
2022-11-03T10:25:40.374Z,13.30
2022-11-03T10:28:20.912Z,13.30
2022-11-03T10:31:11.283Z,13.40
2022-11-03T10:33:49.834Z,13.50
2022-11-03T10:36:16.649Z,13.50
2022-11-03T10:38:43.945Z,13.50
2022-11-03T10:41:28.330Z,13.60
2022-11-03T10:44:05.876Z,13.60
2022-11-03T10:49:20.894Z,13.60
2022-11-03T10:51:50.574Z,13.70
2022-11-03T10:54:18.763Z,13.70
2022-11-03T10:56:46.502Z,13.60
2022-11-03T10:59:18.914Z,13.70
2022-11-03T11:01:48.357Z,13.70
2022-11-03T11:04:21.728Z,13.70
2022-11-03T11:06:48.773Z,13.80
2022-11-03T11:09:30.699Z,13.90
2022-11-03T11:12:21.922Z,13.90
2022-11-03T11:18:39.989Z,14.00
2022-11-03T11:21:21.473Z,14.10
2022-11-03T11:23:50.808Z,14.10
2022-11-03T11:26:26.909Z,14.10
2022-11-03T11:29:08.654Z,14.20
2022-11-03T11:31:39.214Z,14.20
2022-11-03T11:34:11.819Z,14.20
2022-11-03T11:37:02.695Z,14.30
2022-11-03T11:39:29.240Z,14.30
2022-11-03T11:42:04.874Z,14.30
2022-11-03T11:44:57.292Z,14.40
2022-11-03T11:47:49.514Z,14.40
2022-11-03T11:50:31.128Z,14.40
2022-11-03T11:53:11.108Z,14.50
2022-11-03T11:55:59.326Z,14.50
2022-11-03T11:58:45.468Z,14.60
2022-11-03T12:01:33.840Z,14.70
2022-11-03T12:04:22.866Z,14.70
2022-11-03T12:06:50.043Z,14.80
2022-11-03T12:09:38.268Z,14.70
2022-11-03T12:12:08.606Z,14.70
2022-11-03T12:14:47.846Z,14.70
2022-11-03T12:17:43.963Z,14.80
2022-11-03T12:20:36.427Z,14.90
2022-11-03T12:23:02.971Z,14.90
2022-11-03T12:25:34.947Z,14.90
2022-11-03T12:28:01.659Z,14.80
2022-11-03T12:30:28.246Z,14.80
2022-11-03T12:32:54.825Z,14.80
2022-11-03T12:35:23.908Z,14.80
2022-11-03T12:37:50.732Z,14.80
2022-11-03T12:40:17.309Z,14.80
2022-11-03T12:42:43.886Z,14.70
2022-11-03T12:45:11.207Z,14.80
2022-11-03T12:47:37.759Z,14.90
2022-11-03T12:50:04.564Z,14.90
2022-11-03T12:52:31.256Z,15.10
2022-11-03T12:54:58.150Z,15.10
2022-11-03T12:57:24.739Z,15.20
2022-11-03T12:59:51.371Z,15.40
2022-11-03T13:02:18.074Z,15.50
2022-11-03T13:04:44.886Z,15.60
2022-11-03T13:07:13.860Z,15.70
2022-11-03T13:09:40.633Z,15.70
2022-11-03T13:12:11.631Z,15.70
2022-11-03T13:14:38.236Z,15.60
2022-11-03T13:17:04.878Z,15.50
2022-11-03T13:19:32.075Z,15.40
2022-11-03T13:21:58.795Z,15.30
2022-11-03T13:24:25.442Z,15.30
2022-11-03T13:26:52.090Z,15.30
2022-11-03T13:29:18.721Z,15.30
2022-11-03T13:31:45.380Z,15.30
2022-11-03T13:34:12.173Z,15.30
2022-11-03T13:36:39.887Z,15.20
2022-11-03T13:39:08.154Z,15.20
2022-11-03T13:41:34.892Z,15.20
2022-11-03T13:44:02.409Z,15.20
2022-11-03T13:46:32.878Z,15.10
2022-11-03T13:51:47.312Z,15.10
2022-11-03T13:59:53.758Z,15.00
2022-11-03T14:05:29.490Z,15.00
2022-11-03T14:10:36.978Z,15.00
2022-11-03T14:13:04.202Z,14.90
2022-11-03T14:15:31.037Z,14.90
2022-11-03T14:17:58.203Z,14.80
2022-11-03T14:20:25.132Z,14.80
2022-11-03T14:22:51.976Z,14.80
2022-11-03T14:25:18.606Z,14.70
2022-11-03T14:28:00.089Z,14.70
2022-11-03T14:30:34.519Z,14.70
2022-11-03T14:33:18.962Z,14.70
2022-11-03T14:35:45.539Z,14.70
2022-11-03T14:40:52.988Z,14.60
2022-11-03T14:43:19.669Z,14.60
2022-11-03T14:45:46.314Z,14.60
2022-11-03T14:48:28.110Z,14.50
2022-11-03T14:51:07.900Z,14.50
2022-11-03T14:53:34.505Z,14.50
2022-11-03T14:56:13.366Z,14.40
2022-11-03T14:58:39.993Z,14.40
2022-11-03T15:01:06.908Z,14.30
2022-11-03T15:03:52.529Z,14.30
2022-11-03T15:06:19.296Z,14.30
2022-11-03T15:11:34.073Z,14.20
2022-11-03T15:14:19.517Z,14.20
2022-11-03T15:20:18.138Z,14.10
2022-11-03T15:25:57.054Z,13.90
2022-11-03T15:28:32.688Z,13.80
2022-11-03T15:30:59.621Z,13.70
2022-11-03T15:33:45.782Z,13.70
2022-11-03T15:36:12.531Z,13.60
2022-11-03T15:38:39.188Z,13.50
2022-11-03T15:41:23.408Z,13.50
2022-11-03T15:43:50.373Z,13.50
2022-11-03T15:46:18.305Z,13.40
2022-11-03T15:48:45.675Z,13.40
2022-11-03T15:51:18.504Z,13.30
2022-11-03T15:57:00.657Z,13.30
2022-11-03T15:59:28.579Z,13.30
2022-11-03T16:02:35.159Z,13.20
2022-11-03T16:05:04.768Z,13.20
2022-11-03T16:07:32.166Z,13.10
2022-11-03T16:09:58.906Z,13.10
2022-11-03T16:12:36.903Z,13.00
2022-11-03T16:15:18.591Z,13.00
2022-11-03T16:18:01.713Z,13.00
2022-11-03T16:20:32.076Z,12.90
2022-11-03T16:23:19.369Z,12.90
2022-11-03T16:25:51.859Z,12.80
2022-11-03T16:30:59.097Z,12.80
2022-11-03T16:33:25.732Z,12.70
2022-11-03T16:38:44.173Z,12.70
2022-11-03T16:44:37.369Z,12.60
2022-11-03T16:47:22.846Z,12.60
2022-11-03T16:53:07.933Z,12.60
2022-11-03T16:55:43.982Z,12.50
2022-11-03T17:05:27.201Z,12.40
2022-11-03T17:10:48.425Z,12.30
2022-11-03T17:13:16.567Z,12.20
2022-11-03T17:16:05.185Z,12.20
2022-11-03T17:32:25.367Z,12.10
2022-11-03T18:06:31.610Z,11.70
2022-11-03T18:09:27.450Z,11.70
2022-11-03T18:12:06.777Z,11.70
2022-11-03T18:14:52.199Z,11.70
2022-11-03T18:20:17.058Z,11.70
2022-11-03T19:15:25.172Z,11.50
2022-11-03T19:27:05.091Z,11.50
2022-11-03T19:29:34.364Z,11.50
2022-11-03T19:32:26.279Z,11.50
2022-11-03T19:37:52.104Z,11.50
2022-11-03T19:40:38.946Z,11.50
2022-11-03T19:43:34.374Z,11.50
2022-11-03T19:46:18.709Z,11.50
2022-11-03T19:49:02.630Z,11.50
2022-11-03T19:51:29.740Z,11.40
2022-11-03T19:57:37.690Z,11.50
2022-11-03T20:00:25.166Z,11.50
2022-11-03T20:02:51.768Z,11.50
2022-11-03T20:08:04.035Z,11.50
2022-11-03T20:21:19.273Z,11.50
2022-11-03T20:26:28.347Z,11.50
2022-11-03T20:29:13.811Z,11.50
2022-11-03T20:32:03.921Z,11.50
2022-11-03T20:34:30.731Z,11.50
2022-11-03T20:37:20.447Z,11.50
2022-11-03T20:39:59.593Z,11.50
2022-11-03T20:42:31.394Z,11.50
2022-11-03T20:45:19.185Z,11.50
2022-11-03T20:47:48.338Z,11.50
2022-11-03T20:50:30.877Z,11.50
2022-11-03T20:52:59.673Z,11.50
2022-11-03T20:55:27.464Z,11.40
2022-11-03T20:58:17.273Z,11.40
2022-11-03T21:04:01.113Z,11.40
2022-11-03T21:06:50.277Z,11.40
2022-11-03T21:09:43.284Z,11.30
2022-11-03T21:15:24.497Z,11.30
2022-11-03T21:18:23.217Z,11.30
2022-11-03T21:21:11.152Z,11.30
2022-11-03T21:23:38.606Z,11.30
2022-11-03T21:26:27.657Z,11.30
2022-11-03T21:43:47.900Z,11.10
2022-11-03T21:48:58.911Z,11.10
2022-11-03T21:51:42.598Z,11.10
2022-11-03T21:54:26.868Z,11.00
2022-11-03T21:56:55.725Z,11.00
2022-11-03T21:59:23.133Z,11.00
2022-11-03T22:01:50.094Z,11.00
2022-11-03T22:17:30.030Z,11.10
2022-11-03T22:22:33.709Z,10.90
2022-11-03T22:30:28.629Z,10.90
2022-11-03T23:17:22.069Z,10.80
2022-11-03T23:33:19.242Z,10.70
2022-11-03T23:35:45.898Z,10.70
2022-11-03T23:38:24.374Z,10.70
2022-11-03T23:40:51.330Z,10.70
2022-11-03T23:43:38.533Z,10.60
2022-11-03T23:46:27.072Z,10.60
2022-11-03T23:48:54.091Z,10.60
2022-11-03T23:51:34.962Z,10.60
2022-11-03T23:54:18.615Z,10.60
2022-11-03T23:56:47.461Z,10.50
2022-11-03T23:59:41.799Z,10.50
